createdAt,value
2023-03-04T00:02:09.798Z,101824.22
2023-03-04T00:07:12.511Z,101819.06
2023-03-04T00:12:14.033Z,101812.22
2023-03-04T00:17:15.505Z,101809.59
2023-03-04T00:22:17.102Z,101819.22
2023-03-04T00:27:18.574Z,101821.66
2023-03-04T00:32:20.099Z,101807.16
2023-03-04T00:37:21.639Z,101797.69
2023-03-04T00:42:23.130Z,101797.63
2023-03-04T00:47:24.594Z,101798.50
2023-03-04T00:52:26.098Z,101788.25
2023-03-04T00:57:27.585Z,101779.47
2023-03-04T01:02:29.087Z,101777.09
2023-03-04T01:07:30.569Z,101774.38
2023-03-04T01:12:32.052Z,101770.19
2023-03-04T01:17:33.578Z,101756.22
2023-03-04T01:22:35.168Z,101747.91
2023-03-04T01:27:36.620Z,101745.19
2023-03-04T01:32:38.147Z,101745.34
2023-03-04T01:37:39.648Z,101738.47
2023-03-04T01:42:41.139Z,101728.13
2023-03-04T01:47:48.202Z,101716.84
2023-03-04T01:52:49.659Z,101712.31
2023-03-04T01:57:51.708Z,101714.41
2023-03-04T02:02:55.530Z,101711.59
2023-03-04T02:07:57.258Z,101717.66
2023-03-04T02:12:59.590Z,101704.06
2023-03-04T02:18:01.389Z,101699.69
2023-03-04T02:23:15.008Z,101695.25
2023-03-04T02:28:16.475Z,101693.41
2023-03-04T02:33:17.999Z,101673.34
2023-03-04T02:38:19.445Z,101670.66
2023-03-04T02:43:20.894Z,101668.22
2023-03-04T02:48:23.853Z,101669.25
2023-03-04T02:53:25.636Z,101682.09
2023-03-04T02:58:27.160Z,101678.00
2023-03-04T03:03:28.617Z,101669.44
2023-03-04T03:08:30.146Z,101660.94
2023-03-04T03:13:32.200Z,101656.66
2023-03-04T03:18:33.658Z,101645.72
2023-03-04T03:23:35.156Z,101644.25
2023-03-04T03:28:36.679Z,101639.13
2023-03-04T03:33:38.158Z,101637.41
2023-03-04T03:38:39.630Z,101628.22
2023-03-04T03:43:41.077Z,101631.84
2023-03-04T03:48:42.593Z,101633.41
2023-03-04T03:53:44.055Z,101630.16
2023-03-04T03:58:45.530Z,101626.47
2023-03-04T04:03:47.078Z,101612.44
2023-03-04T04:08:48.560Z,101627.78
2023-03-04T04:13:50.017Z,101620.25
2023-03-04T04:18:51.485Z,101621.69
2023-03-04T04:23:53.994Z,101627.06
2023-03-04T04:28:55.473Z,101625.31
2023-03-04T04:33:56.954Z,101642.75
2023-03-04T04:38:58.424Z,101629.25
2023-03-04T04:43:59.892Z,101627.00
2023-03-04T04:49:01.414Z,101629.34
2023-03-04T04:54:03.026Z,101611.06
2023-03-04T04:59:04.956Z,101610.31
2023-03-04T05:04:06.457Z,101611.19
2023-03-04T05:09:07.932Z,101624.84
2023-03-04T05:14:09.408Z,101615.84
2023-03-04T05:19:10.861Z,101626.34
2023-03-04T05:24:12.663Z,101636.78
2023-03-04T05:29:14.134Z,101612.22
2023-03-04T05:34:15.684Z,101612.44
2023-03-04T05:39:17.161Z,101610.63
2023-03-04T05:44:18.659Z,101607.00
2023-03-04T05:49:20.208Z,101616.41
2023-03-04T05:54:21.772Z,101618.25
2023-03-04T05:59:23.518Z,101623.13
2023-03-04T06:04:24.983Z,101623.84
2023-03-04T06:09:26.618Z,101619.09
2023-03-04T06:14:28.131Z,101631.13
2023-03-04T06:19:29.620Z,101633.56
2023-03-04T06:24:31.094Z,101641.47
2023-03-04T06:29:32.613Z,101625.13
2023-03-04T06:34:34.090Z,101649.66
2023-03-04T06:39:35.584Z,101637.81
2023-03-04T06:44:37.098Z,101650.75
2023-03-04T06:49:38.594Z,101657.22
2023-03-04T06:54:40.196Z,101650.97
2023-03-04T06:59:41.688Z,101664.59
2023-03-04T07:04:43.159Z,101672.94
2023-03-04T07:09:44.617Z,101681.69
2023-03-04T07:14:46.083Z,101679.03
2023-03-04T07:19:47.614Z,101690.28
2023-03-04T07:24:49.091Z,101686.75
2023-03-04T07:29:50.566Z,101687.47
2023-03-04T07:34:52.064Z,101692.81
2023-03-04T07:39:53.537Z,101686.53
2023-03-04T07:44:55.281Z,101699.41
2023-03-04T07:49:56.986Z,101704.97
2023-03-04T07:54:58.458Z,101698.75
2023-03-04T07:59:59.921Z,101698.97
2023-03-04T08:05:01.442Z,101711.88
2023-03-04T08:10:03.418Z,101711.94
2023-03-04T08:15:05.358Z,101703.34
2023-03-04T08:20:07.439Z,101710.91
2023-03-04T08:25:09.192Z,101725.56
2023-03-04T08:30:11.227Z,101724.59
2023-03-04T08:35:12.703Z,101722.06
2023-03-04T08:40:14.266Z,101710.97
2023-03-04T08:45:15.900Z,101728.19
2023-03-04T08:50:17.437Z,101715.09
2023-03-04T08:55:19.091Z,101728.09
2023-03-04T09:00:22.193Z,101723.63
2023-03-04T09:05:23.694Z,101721.91
2023-03-04T09:10:25.288Z,101720.72
2023-03-04T09:15:26.775Z,101733.88
2023-03-04T09:20:28.241Z,101722.81
2023-03-04T09:25:29.735Z,101716.53
2023-03-04T09:30:31.221Z,101734.66
2023-03-04T09:35:32.792Z,101738.97
2023-03-04T09:40:42.548Z,101730.50
2023-03-04T09:45:46.451Z,101727.88
2023-03-04T09:50:59.633Z,101737.50
2023-03-04T09:56:02.340Z,101746.09
2023-03-04T10:01:10.690Z,101728.72
2023-03-04T10:06:16.234Z,101729.50
2023-03-04T10:11:25.962Z,101718.31
2023-03-04T10:16:29.688Z,101729.47
2023-03-04T10:21:39.699Z,101734.03
2023-03-04T10:26:42.521Z,101740.03
2023-03-04T10:31:44.120Z,101728.78
2023-03-04T10:37:02.032Z,101723.69
2023-03-04T10:42:05.610Z,101725.28
2023-03-04T10:47:10.920Z,101713.13
2023-03-04T10:52:31.528Z,101727.47
2023-03-04T10:57:40.133Z,101730.22
2023-03-04T11:02:41.615Z,101723.31
2023-03-04T11:07:55.543Z,101710.31
2023-03-04T11:13:02.765Z,101723.41
2023-03-04T11:18:05.370Z,101719.53
2023-03-04T11:23:11.298Z,101709.38
2023-03-04T11:28:16.756Z,101707.06
2023-03-04T11:33:22.805Z,101709.53
2023-03-04T11:38:26.586Z,101709.72
2023-03-04T11:43:37.899Z,101715.03
2023-03-04T11:48:45.150Z,101695.06
2023-03-04T11:53:54.614Z,101691.63
2023-03-04T11:59:15.952Z,101701.31
2023-03-04T12:04:40.445Z,101698.44
2023-03-04T12:09:47.768Z,101684.47
2023-03-04T12:14:52.498Z,101697.06
2023-03-04T12:20:14.297Z,101681.47
2023-03-04T12:25:29.120Z,101679.81
2023-03-04T12:30:42.418Z,101672.31
2023-03-04T12:35:50.128Z,101674.91
2023-03-04T12:41:03.414Z,101672.94
2023-03-04T12:46:16.743Z,101682.94
2023-03-04T12:51:28.562Z,101664.63
2023-03-04T12:56:37.783Z,101659.94
2023-03-04T13:01:42.211Z,101663.00
2023-03-04T13:07:08.262Z,101655.53
2023-03-04T13:12:17.702Z,101657.72
2023-03-04T13:17:44.191Z,101664.19
2023-03-04T13:22:53.490Z,101659.38
2023-03-04T13:28:02.604Z,101653.28
2023-03-04T13:33:16.066Z,101663.31
2023-03-04T13:38:29.582Z,101664.34
2023-03-04T13:43:39.500Z,101664.91
2023-03-04T13:48:41.036Z,101646.81
2023-03-04T13:53:58.025Z,101643.00
2023-03-04T13:59:24.571Z,101641.59
2023-03-04T14:04:33.506Z,101638.06
2023-03-04T14:09:35.201Z,101640.44
2023-03-04T14:14:57.628Z,101643.84
2023-03-04T14:19:59.568Z,101642.34
2023-03-04T14:25:22.506Z,101658.88
2023-03-04T14:30:39.505Z,101653.81
2023-03-04T14:35:51.223Z,101644.06
2023-03-04T14:41:10.741Z,101633.56
2023-03-04T14:46:13.304Z,101623.69
2023-03-04T14:51:37.962Z,101641.66
2023-03-04T14:56:43.453Z,101646.69
2023-03-04T15:01:45.954Z,101640.13
2023-03-04T15:06:51.458Z,101635.75
2023-03-04T15:12:04.167Z,101627.06
2023-03-04T15:17:05.700Z,101629.78
2023-03-04T15:22:07.281Z,101627.19
2023-03-04T15:27:11.770Z,101634.97
2023-03-04T15:32:13.254Z,101639.78
2023-03-04T15:37:25.533Z,101628.47
2023-03-04T15:42:28.131Z,101636.78
2023-03-04T15:47:29.595Z,101633.94
2023-03-04T15:52:31.095Z,101637.38
2023-03-04T15:57:32.866Z,101633.91
2023-03-04T16:02:34.657Z,101642.53
2023-03-04T16:07:36.213Z,101629.44
2023-03-04T16:12:37.722Z,101621.63
2023-03-04T16:17:43.786Z,101625.88
2023-03-04T16:22:45.720Z,101625.31
2023-03-04T16:27:47.220Z,101613.31
2023-03-04T16:32:48.683Z,101616.72
2023-03-04T16:37:51.008Z,101605.63
2023-03-04T16:42:52.470Z,101611.84
2023-03-04T16:47:53.996Z,101605.91
2023-03-04T16:52:55.662Z,101608.38
2023-03-04T16:58:00.274Z,101604.81
2023-03-04T17:03:01.849Z,101610.00
2023-03-04T17:08:03.425Z,101607.94
2023-03-04T17:13:05.644Z,101612.66
2023-03-04T17:18:07.136Z,101603.94
2023-03-04T17:23:08.596Z,101613.50
2023-03-04T17:28:10.070Z,101611.88
2023-03-04T17:33:11.527Z,101620.47
2023-03-04T17:38:13.731Z,101595.75
2023-03-04T17:43:15.197Z,101602.59
2023-03-04T17:48:16.952Z,101597.47
2023-03-04T17:53:18.475Z,101609.50
2023-03-04T17:58:19.940Z,101607.72
2023-03-04T18:03:21.418Z,101605.19
2023-03-04T18:08:24.158Z,101605.16
2023-03-04T18:13:25.732Z,101608.63
2023-03-04T18:18:27.208Z,101601.78
2023-03-04T18:23:28.881Z,101609.50
2023-03-04T18:28:30.337Z,101598.34
2023-03-04T18:33:31.903Z,101588.84
2023-03-04T18:38:33.527Z,101575.06
2023-03-04T18:43:35.145Z,101590.41
2023-03-04T18:48:39.652Z,101576.63
2023-03-04T18:53:41.133Z,101591.19
2023-03-04T18:58:43.625Z,101581.75
2023-03-04T19:03:45.181Z,101589.59
2023-03-04T19:08:46.701Z,101590.50
2023-03-04T19:13:48.210Z,101593.16
2023-03-04T19:18:49.674Z,101584.53
2023-03-04T19:23:51.167Z,101576.72
2023-03-04T19:28:52.654Z,101568.28
2023-03-04T19:33:54.106Z,101569.06
2023-03-04T19:38:55.842Z,101569.06
2023-03-04T19:43:57.400Z,101571.66
2023-03-04T19:48:58.866Z,101570.63
2023-03-04T19:54:00.402Z,101577.56
2023-03-04T19:59:02.481Z,101563.69
2023-03-04T20:04:07.077Z,101564.47
2023-03-04T20:09:08.748Z,101550.88
2023-03-04T20:14:10.266Z,101543.78
2023-03-04T20:19:11.768Z,101540.31
2023-03-04T20:24:14.923Z,101535.13
2023-03-04T20:29:16.410Z,101534.25
2023-03-04T20:34:17.916Z,101529.84
2023-03-04T20:39:28.459Z,101522.25
2023-03-04T20:44:30.816Z,101528.25
2023-03-04T20:49:32.301Z,101524.13
2023-03-04T20:54:34.749Z,101533.28
2023-03-04T20:59:38.842Z,101540.03
2023-03-04T21:04:40.415Z,101533.31
2023-03-04T21:09:41.973Z,101523.81
2023-03-04T21:14:44.889Z,101530.00
2023-03-04T21:19:46.380Z,101532.03
2023-03-04T21:24:47.918Z,101520.91
2023-03-04T21:29:49.608Z,101512.38
2023-03-04T21:34:52.020Z,101511.44
2023-03-04T21:39:54.437Z,101501.00
2023-03-04T21:44:55.912Z,101504.66
2023-03-04T21:49:57.379Z,101478.09
2023-03-04T21:55:00.253Z,101483.22
2023-03-04T22:00:01.743Z,101479.81
2023-03-04T22:05:03.368Z,101478.91
2023-03-04T22:10:06.671Z,101480.63
2023-03-04T22:15:09.098Z,101471.09
2023-03-04T22:20:11.333Z,101458.25
2023-03-04T22:25:12.826Z,101459.25
2023-03-04T22:30:16.297Z,101459.41
2023-03-04T22:35:17.704Z,101456.63
2023-03-04T22:40:19.260Z,101436.00
2023-03-04T22:45:21.520Z,101431.81
2023-03-04T22:50:23.097Z,101433.59
2023-03-04T22:55:24.552Z,101435.00
2023-03-04T23:00:26.919Z,101422.78
2023-03-04T23:05:28.480Z,101441.38
2023-03-04T23:10:29.946Z,101421.69
2023-03-04T23:15:31.408Z,101413.13
2023-03-04T23:20:32.945Z,101404.56
2023-03-04T23:25:35.287Z,101390.78
2023-03-04T23:30:36.799Z,101394.91
2023-03-04T23:35:38.342Z,101397.66
2023-03-04T23:40:39.844Z,101397.56
2023-03-04T23:45:41.352Z,101401.97
2023-03-04T23:50:42.854Z,101401.03
2023-03-04T23:55:44.319Z,101392.44
